sensor_id;sensor_type;location;lat;lon;timestamp;temperature;humidity
52879;DHT22;38747;53.140;6.498;2023-05-07T00:00:20;12.60;99.90
52879;DHT22;38747;53.140;6.498;2023-05-07T00:02:46;12.60;99.90
52879;DHT22;38747;53.140;6.498;2023-05-07T00:05:12;12.50;99.90
52879;DHT22;38747;53.140;6.498;2023-05-07T00:07:38;12.50;99.90
52879;DHT22;38747;53.140;6.498;2023-05-07T00:10:04;12.50;99.90
52879;DHT22;38747;53.140;6.498;2023-05-07T00:12:31;12.50;99.90
52879;DHT22;38747;53.140;6.498;2023-05-07T00:15:02;12.40;99.90
52879;DHT22;38747;53.140;6.498;2023-05-07T00:17:28;12.40;99.90
52879;DHT22;38747;53.140;6.498;2023-05-07T00:19:53;12.40;99.90
52879;DHT22;38747;53.140;6.498;2023-05-07T00:22:19;12.30;99.90
52879;DHT22;38747;53.140;6.498;2023-05-07T00:24:45;12.30;99.90
52879;DHT22;38747;53.140;6.498;2023-05-07T00:27:10;12.30;99.90
52879;DHT22;38747;53.140;6.498;2023-05-07T00:29:36;12.30;99.90
52879;DHT22;38747;53.140;6.498;2023-05-07T00:32:02;12.30;99.90
52879;DHT22;38747;53.140;6.498;2023-05-07T00:34:28;12.30;99.90
52879;DHT22;38747;53.140;6.498;2023-05-07T00:36:54;12.20;99.90
52879;DHT22;38747;53.140;6.498;2023-05-07T00:39:20;12.20;99.90
52879;DHT22;38747;53.140;6.498;2023-05-07T00:41:45;12.20;99.90
52879;DHT22;38747;53.140;6.498;2023-05-07T00:44:11;12.20;99.90
52879;DHT22;38747;53.140;6.498;2023-05-07T00:46:37;12.10;99.90
52879;DHT22;38747;53.140;6.498;2023-05-07T00:49:03;12.10;99.90
52879;DHT22;38747;53.140;6.498;2023-05-07T00:51:30;12.10;99.90
52879;DHT22;38747;53.140;6.498;2023-05-07T00:53:55;12.10;99.90
52879;DHT22;38747;53.140;6.498;2023-05-07T00:56:21;12.10;99.90
52879;DHT22;38747;53.140;6.498;2023-05-07T00:58:48;12.00;99.90
52879;DHT22;38747;53.140;6.498;2023-05-07T01:01:14;12.00;99.90
52879;DHT22;38747;53.140;6.498;2023-05-07T01:03:42;12.00;99.90
52879;DHT22;38747;53.140;6.498;2023-05-07T01:06:08;12.00;99.90
52879;DHT22;38747;53.140;6.498;2023-05-07T01:08:35;11.90;99.90
52879;DHT22;38747;53.140;6.498;2023-05-07T01:11:01;11.90;99.90
52879;DHT22;38747;53.140;6.498;2023-05-07T01:13:28;11.90;99.90
52879;DHT22;38747;53.140;6.498;2023-05-07T01:15:54;11.80;99.90
52879;DHT22;38747;53.140;6.498;2023-05-07T01:18:19;11.80;99.90
52879;DHT22;38747;53.140;6.498;2023-05-07T01:20:45;11.80;99.90
52879;DHT22;38747;53.140;6.498;2023-05-07T01:23:11;11.80;99.90
52879;DHT22;38747;53.140;6.498;2023-05-07T01:25:38;11.70;99.90
52879;DHT22;38747;53.140;6.498;2023-05-07T01:28:03;11.70;99.90
52879;DHT22;38747;53.140;6.498;2023-05-07T01:30:29;11.70;99.90
52879;DHT22;38747;53.140;6.498;2023-05-07T01:33:06;11.60;99.90
52879;DHT22;38747;53.140;6.498;2023-05-07T01:35:45;11.60;99.90
52879;DHT22;38747;53.140;6.498;2023-05-07T01:38:11;11.60;99.90
52879;DHT22;38747;53.140;6.498;2023-05-07T01:40:37;11.50;99.90
52879;DHT22;38747;53.140;6.498;2023-05-07T01:43:03;11.60;99.90
52879;DHT22;38747;53.140;6.498;2023-05-07T01:45:30;11.50;99.90
52879;DHT22;38747;53.140;6.498;2023-05-07T01:47:58;11.50;99.90
52879;DHT22;38747;53.140;6.498;2023-05-07T01:50:25;11.50;99.90
52879;DHT22;38747;53.140;6.498;2023-05-07T01:52:51;11.50;99.90
52879;DHT22;38747;53.140;6.498;2023-05-07T01:55:17;11.50;99.90
52879;DHT22;38747;53.140;6.498;2023-05-07T01:57:43;11.40;99.90
52879;DHT22;38747;53.140;6.498;2023-05-07T02:00:09;11.40;99.90
52879;DHT22;38747;53.140;6.498;2023-05-07T02:02:35;11.40;99.90
52879;DHT22;38747;53.140;6.498;2023-05-07T02:05:01;11.30;99.90
52879;DHT22;38747;53.140;6.498;2023-05-07T02:07:27;11.30;99.90
52879;DHT22;38747;53.140;6.498;2023-05-07T02:09:53;11.30;99.90
52879;DHT22;38747;53.140;6.498;2023-05-07T02:12:21;11.30;99.90
52879;DHT22;38747;53.140;6.498;2023-05-07T02:14:46;11.30;99.90
52879;DHT22;38747;53.140;6.498;2023-05-07T02:17:12;11.30;99.90
52879;DHT22;38747;53.140;6.498;2023-05-07T02:19:37;11.20;99.90
52879;DHT22;38747;53.140;6.498;2023-05-07T02:22:03;11.20;99.90
52879;DHT22;38747;53.140;6.498;2023-05-07T02:24:29;11.20;99.90
52879;DHT22;38747;53.140;6.498;2023-05-07T02:26:55;11.20;99.90
52879;DHT22;38747;53.140;6.498;2023-05-07T02:29:21;11.20;99.90
52879;DHT22;38747;53.140;6.498;2023-05-07T02:31:46;11.20;99.90
52879;DHT22;38747;53.140;6.498;2023-05-07T02:34:16;11.20;99.90
52879;DHT22;38747;53.140;6.498;2023-05-07T02:36:42;11.20;99.90
52879;DHT22;38747;53.140;6.498;2023-05-07T02:39:07;11.20;99.90
52879;DHT22;38747;53.140;6.498;2023-05-07T02:41:33;11.20;99.90
52879;DHT22;38747;53.140;6.498;2023-05-07T02:43:59;11.10;99.90
52879;DHT22;38747;53.140;6.498;2023-05-07T02:46:24;11.20;99.90
52879;DHT22;38747;53.140;6.498;2023-05-07T02:48:50;11.20;99.90
52879;DHT22;38747;53.140;6.498;2023-05-07T02:51:19;11.10;99.90
52879;DHT22;38747;53.140;6.498;2023-05-07T02:53:45;11.20;99.90
52879;DHT22;38747;53.140;6.498;2023-05-07T02:56:11;11.10;99.90
52879;DHT22;38747;53.140;6.498;2023-05-07T02:58:37;11.10;99.90
52879;DHT22;38747;53.140;6.498;2023-05-07T03:01:05;11.10;99.90
52879;DHT22;38747;53.140;6.498;2023-05-07T03:03:31;11.10;99.90
52879;DHT22;38747;53.140;6.498;2023-05-07T03:05:56;11.10;99.90
52879;DHT22;38747;53.140;6.498;2023-05-07T03:08:22;11.10;99.90
52879;DHT22;38747;53.140;6.498;2023-05-07T03:10:48;11.10;99.90
52879;DHT22;38747;53.140;6.498;2023-05-07T03:13:14;11.10;99.90
52879;DHT22;38747;53.140;6.498;2023-05-07T03:15:40;11.10;99.90
52879;DHT22;38747;53.140;6.498;2023-05-07T03:18:05;11.00;99.90
52879;DHT22;38747;53.140;6.498;2023-05-07T03:20:31;11.10;99.90
52879;DHT22;38747;53.140;6.498;2023-05-07T03:22:56;11.10;99.90
52879;DHT22;38747;53.140;6.498;2023-05-07T03:25:22;11.00;99.90
52879;DHT22;38747;53.140;6.498;2023-05-07T03:27:48;11.10;99.90
52879;DHT22;38747;53.140;6.498;2023-05-07T03:30:14;11.10;99.90
52879;DHT22;38747;53.140;6.498;2023-05-07T03:32:40;11.00;99.90
52879;DHT22;38747;53.140;6.498;2023-05-07T03:35:06;11.10;99.90
52879;DHT22;38747;53.140;6.498;2023-05-07T03:37:31;11.00;99.90
52879;DHT22;38747;53.140;6.498;2023-05-07T03:39:57;11.00;99.90
52879;DHT22;38747;53.140;6.498;2023-05-07T03:42:23;11.00;99.90
52879;DHT22;38747;53.140;6.498;2023-05-07T03:44:48;11.00;99.90
52879;DHT22;38747;53.140;6.498;2023-05-07T03:47:14;11.00;99.90
52879;DHT22;38747;53.140;6.498;2023-05-07T03:49:40;11.00;99.90
52879;DHT22;38747;53.140;6.498;2023-05-07T03:52:06;11.00;99.90
52879;DHT22;38747;53.140;6.498;2023-05-07T03:54:32;11.00;99.90
52879;DHT22;38747;53.140;6.498;2023-05-07T03:56:57;11.00;99.90
52879;DHT22;38747;53.140;6.498;2023-05-07T03:59:23;11.00;99.90
52879;DHT22;38747;53.140;6.498;2023-05-07T04:01:48;11.00;99.90
52879;DHT22;38747;53.140;6.498;2023-05-07T04:04:14;11.00;99.90
52879;DHT22;38747;53.140;6.498;2023-05-07T04:06:40;11.00;99.90
52879;DHT22;38747;53.140;6.498;2023-05-07T04:09:06;10.90;99.90
52879;DHT22;38747;53.140;6.498;2023-05-07T04:11:32;10.90;99.90
52879;DHT22;38747;53.140;6.498;2023-05-07T04:13:58;11.00;99.90
52879;DHT22;38747;53.140;6.498;2023-05-07T04:16:23;10.90;99.90
52879;DHT22;38747;53.140;6.498;2023-05-07T04:18:49;10.90;99.90
52879;DHT22;38747;53.140;6.498;2023-05-07T04:21:19;10.90;99.90
52879;DHT22;38747;53.140;6.498;2023-05-07T04:23:49;10.90;99.90
52879;DHT22;38747;53.140;6.498;2023-05-07T04:26:15;10.80;99.90
52879;DHT22;38747;53.140;6.498;2023-05-07T04:28:41;10.80;99.90
52879;DHT22;38747;53.140;6.498;2023-05-07T04:31:07;10.80;99.90
52879;DHT22;38747;53.140;6.498;2023-05-07T04:33:33;10.80;99.90
52879;DHT22;38747;53.140;6.498;2023-05-07T04:36:03;10.80;99.90
52879;DHT22;38747;53.140;6.498;2023-05-07T04:38:30;10.80;99.90
52879;DHT22;38747;53.140;6.498;2023-05-07T04:40:57;10.80;99.90
52879;DHT22;38747;53.140;6.498;2023-05-07T04:43:23;10.80;99.90
52879;DHT22;38747;53.140;6.498;2023-05-07T04:45:50;10.80;99.90
52879;DHT22;38747;53.140;6.498;2023-05-07T04:48:17;10.80;99.90
52879;DHT22;38747;53.140;6.498;2023-05-07T04:50:46;10.80;99.90
52879;DHT22;38747;53.140;6.498;2023-05-07T04:53:12;10.80;99.90
52879;DHT22;38747;53.140;6.498;2023-05-07T04:55:38;10.80;99.90
52879;DHT22;38747;53.140;6.498;2023-05-07T04:58:03;10.80;99.90
52879;DHT22;38747;53.140;6.498;2023-05-07T05:00:30;10.70;99.90
52879;DHT22;38747;53.140;6.498;2023-05-07T05:02:56;10.80;99.90
52879;DHT22;38747;53.140;6.498;2023-05-07T05:05:22;10.80;99.90
52879;DHT22;38747;53.140;6.498;2023-05-07T05:07:47;10.70;99.90
52879;DHT22;38747;53.140;6.498;2023-05-07T05:10:13;10.70;99.90
52879;DHT22;38747;53.140;6.498;2023-05-07T05:12:39;10.70;99.90
52879;DHT22;38747;53.140;6.498;2023-05-07T05:15:05;10.70;99.90
52879;DHT22;38747;53.140;6.498;2023-05-07T05:17:31;10.80;99.90
52879;DHT22;38747;53.140;6.498;2023-05-07T05:19:57;10.70;99.90
52879;DHT22;38747;53.140;6.498;2023-05-07T05:22:22;10.80;99.90
52879;DHT22;38747;53.140;6.498;2023-05-07T05:24:48;10.80;99.90
52879;DHT22;38747;53.140;6.498;2023-05-07T05:27:13;10.80;99.90
52879;DHT22;38747;53.140;6.498;2023-05-07T05:29:39;10.80;99.90
52879;DHT22;38747;53.140;6.498;2023-05-07T05:32:05;10.80;99.90
52879;DHT22;38747;53.140;6.498;2023-05-07T05:34:30;10.80;99.90
52879;DHT22;38747;53.140;6.498;2023-05-07T05:36:56;10.80;99.90
52879;DHT22;38747;53.140;6.498;2023-05-07T05:39:22;10.80;99.90
52879;DHT22;38747;53.140;6.498;2023-05-07T05:41:48;10.80;99.90
52879;DHT22;38747;53.140;6.498;2023-05-07T05:44:14;10.80;99.90
52879;DHT22;38747;53.140;6.498;2023-05-07T05:46:39;10.80;99.90
52879;DHT22;38747;53.140;6.498;2023-05-07T05:49:05;10.80;99.90
52879;DHT22;38747;53.140;6.498;2023-05-07T05:51:31;10.80;99.90
52879;DHT22;38747;53.140;6.498;2023-05-07T05:53:56;10.80;99.90
52879;DHT22;38747;53.140;6.498;2023-05-07T05:56:22;10.80;99.90
52879;DHT22;38747;53.140;6.498;2023-05-07T05:58:48;10.80;99.90
52879;DHT22;38747;53.140;6.498;2023-05-07T06:01:13;10.80;99.90
52879;DHT22;38747;53.140;6.498;2023-05-07T06:03:39;10.80;99.90
52879;DHT22;38747;53.140;6.498;2023-05-07T06:06:05;10.80;99.90
52879;DHT22;38747;53.140;6.498;2023-05-07T06:08:30;10.80;99.90
52879;DHT22;38747;53.140;6.498;2023-05-07T06:10:56;10.90;99.90
52879;DHT22;38747;53.140;6.498;2023-05-07T06:13:22;10.80;99.90
52879;DHT22;38747;53.140;6.498;2023-05-07T06:15:49;10.90;99.90
52879;DHT22;38747;53.140;6.498;2023-05-07T06:18:14;10.90;99.90
52879;DHT22;38747;53.140;6.498;2023-05-07T06:20:40;10.90;99.90
52879;DHT22;38747;53.140;6.498;2023-05-07T06:23:06;10.90;99.90
52879;DHT22;38747;53.140;6.498;2023-05-07T06:25:31;11.00;99.90
52879;DHT22;38747;53.140;6.498;2023-05-07T06:27:57;11.10;99.90
52879;DHT22;38747;53.140;6.498;2023-05-07T06:30:23;11.00;99.90
52879;DHT22;38747;53.140;6.498;2023-05-07T06:32:48;11.10;99.90
52879;DHT22;38747;53.140;6.498;2023-05-07T06:35:14;11.10;99.90
52879;DHT22;38747;53.140;6.498;2023-05-07T06:37:41;11.10;99.90
52879;DHT22;38747;53.140;6.498;2023-05-07T06:40:08;11.20;99.90
52879;DHT22;38747;53.140;6.498;2023-05-07T06:42:35;11.20;99.90
52879;DHT22;38747;53.140;6.498;2023-05-07T06:45:01;11.20;99.90
52879;DHT22;38747;53.140;6.498;2023-05-07T06:47:28;11.20;99.90
52879;DHT22;38747;53.140;6.498;2023-05-07T06:49:54;11.30;99.90
52879;DHT22;38747;53.140;6.498;2023-05-07T06:52:19;11.30;99.90
52879;DHT22;38747;53.140;6.498;2023-05-07T06:54:45;11.30;99.90
52879;DHT22;38747;53.140;6.498;2023-05-07T06:57:10;11.30;99.90
52879;DHT22;38747;53.140;6.498;2023-05-07T06:59:36;11.30;99.90
52879;DHT22;38747;53.140;6.498;2023-05-07T07:02:02;11.30;99.90
52879;DHT22;38747;53.140;6.498;2023-05-07T07:04:27;11.30;99.90
52879;DHT22;38747;53.140;6.498;2023-05-07T07:06:54;11.30;99.90
52879;DHT22;38747;53.140;6.498;2023-05-07T07:09:19;11.30;99.90
52879;DHT22;38747;53.140;6.498;2023-05-07T07:11:45;11.40;99.90
52879;DHT22;38747;53.140;6.498;2023-05-07T07:14:11;11.40;99.90
52879;DHT22;38747;53.140;6.498;2023-05-07T07:16:36;11.40;99.90
52879;DHT22;38747;53.140;6.498;2023-05-07T07:19:02;11.40;99.90
52879;DHT22;38747;53.140;6.498;2023-05-07T07:21:27;11.40;99.90
52879;DHT22;38747;53.140;6.498;2023-05-07T07:23:53;11.40;99.90
52879;DHT22;38747;53.140;6.498;2023-05-07T07:26:19;11.50;99.90
52879;DHT22;38747;53.140;6.498;2023-05-07T07:28:45;11.50;99.90
52879;DHT22;38747;53.140;6.498;2023-05-07T07:31:11;11.50;99.90
52879;DHT22;38747;53.140;6.498;2023-05-07T07:33:37;11.60;99.90
52879;DHT22;38747;53.140;6.498;2023-05-07T07:36:05;11.60;99.90
52879;DHT22;38747;53.140;6.498;2023-05-07T07:38:31;11.60;99.90
52879;DHT22;38747;53.140;6.498;2023-05-07T07:40:56;11.60;99.90
52879;DHT22;38747;53.140;6.498;2023-05-07T07:43:22;11.70;99.90
52879;DHT22;38747;53.140;6.498;2023-05-07T07:45:47;11.70;99.90
52879;DHT22;38747;53.140;6.498;2023-05-07T07:48:13;11.80;99.90
52879;DHT22;38747;53.140;6.498;2023-05-07T07:50:39;11.90;99.90
52879;DHT22;38747;53.140;6.498;2023-05-07T07:53:05;12.00;99.90
52879;DHT22;38747;53.140;6.498;2023-05-07T07:55:30;12.00;99.90
52879;DHT22;38747;53.140;6.498;2023-05-07T07:57:57;12.10;99.90
52879;DHT22;38747;53.140;6.498;2023-05-07T08:00:23;12.10;99.90
52879;DHT22;38747;53.140;6.498;2023-05-07T08:02:48;12.10;99.90
52879;DHT22;38747;53.140;6.498;2023-05-07T08:05:14;12.10;99.90
52879;DHT22;38747;53.140;6.498;2023-05-07T08:07:41;12.10;99.90
52879;DHT22;38747;53.140;6.498;2023-05-07T08:10:06;12.00;99.90
52879;DHT22;38747;53.140;6.498;2023-05-07T08:12:32;12.00;99.90
52879;DHT22;38747;53.140;6.498;2023-05-07T08:14:58;12.10;99.90
52879;DHT22;38747;53.140;6.498;2023-05-07T08:17:24;12.10;99.90
52879;DHT22;38747;53.140;6.498;2023-05-07T08:19:49;12.20;99.90
52879;DHT22;38747;53.140;6.498;2023-05-07T08:22:15;12.20;99.90
52879;DHT22;38747;53.140;6.498;2023-05-07T08:24:43;12.20;99.90
52879;DHT22;38747;53.140;6.498;2023-05-07T08:27:08;12.20;99.90
52879;DHT22;38747;53.140;6.498;2023-05-07T08:29:34;12.20;99.90
52879;DHT22;38747;53.140;6.498;2023-05-07T08:32:00;12.30;99.90
52879;DHT22;38747;53.140;6.498;2023-05-07T08:34:25;12.30;99.90
52879;DHT22;38747;53.140;6.498;2023-05-07T08:36:51;12.40;99.90
52879;DHT22;38747;53.140;6.498;2023-05-07T08:39:17;12.50;99.90
52879;DHT22;38747;53.140;6.498;2023-05-07T08:41:44;12.50;99.90
52879;DHT22;38747;53.140;6.498;2023-05-07T08:44:15;12.60;99.90
52879;DHT22;38747;53.140;6.498;2023-05-07T08:46:42;12.70;99.90
52879;DHT22;38747;53.140;6.498;2023-05-07T08:49:09;12.80;99.90
52879;DHT22;38747;53.140;6.498;2023-05-07T08:51:35;12.70;99.90
52879;DHT22;38747;53.140;6.498;2023-05-07T08:54:01;12.90;99.90
52879;DHT22;38747;53.140;6.498;2023-05-07T08:56:27;13.00;99.90
52879;DHT22;38747;53.140;6.498;2023-05-07T08:58:52;13.10;99.90
52879;DHT22;38747;53.140;6.498;2023-05-07T09:01:22;13.30;99.90
52879;DHT22;38747;53.140;6.498;2023-05-07T09:03:49;13.40;99.90
52879;DHT22;38747;53.140;6.498;2023-05-07T09:06:15;13.60;99.90
52879;DHT22;38747;53.140;6.498;2023-05-07T09:08:43;13.80;99.90
52879;DHT22;38747;53.140;6.498;2023-05-07T09:11:13;14.00;99.90
52879;DHT22;38747;53.140;6.498;2023-05-07T09:13:39;14.10;99.90
52879;DHT22;38747;53.140;6.498;2023-05-07T09:16:11;14.20;99.90
52879;DHT22;38747;53.140;6.498;2023-05-07T09:18:44;14.20;99.90
52879;DHT22;38747;53.140;6.498;2023-05-07T09:21:17;14.30;99.90
52879;DHT22;38747;53.140;6.498;2023-05-07T09:23:43;14.30;99.90
52879;DHT22;38747;53.140;6.498;2023-05-07T09:26:10;14.30;99.90
52879;DHT22;38747;53.140;6.498;2023-05-07T09:28:42;14.40;99.90
52879;DHT22;38747;53.140;6.498;2023-05-07T09:31:08;14.60;99.90
52879;DHT22;38747;53.140;6.498;2023-05-07T09:33:34;14.60;99.90
52879;DHT22;38747;53.140;6.498;2023-05-07T09:36:07;14.60;99.90
52879;DHT22;38747;53.140;6.498;2023-05-07T09:38:35;14.60;99.90
52879;DHT22;38747;53.140;6.498;2023-05-07T09:41:12;14.60;99.90
52879;DHT22;38747;53.140;6.498;2023-05-07T09:43:39;14.70;99.90
52879;DHT22;38747;53.140;6.498;2023-05-07T09:46:12;14.80;99.90
52879;DHT22;38747;53.140;6.498;2023-05-07T09:48:40;14.90;99.90
52879;DHT22;38747;53.140;6.498;2023-05-07T09:51:24;15.00;99.90
52879;DHT22;38747;53.140;6.498;2023-05-07T09:53:53;15.20;99.90
52879;DHT22;38747;53.140;6.498;2023-05-07T09:56:19;15.20;99.90
52879;DHT22;38747;53.140;6.498;2023-05-07T09:58:46;15.30;99.90
52879;DHT22;38747;53.140;6.498;2023-05-07T10:01:12;15.30;99.90
52879;DHT22;38747;53.140;6.498;2023-05-07T10:03:43;15.30;99.90
52879;DHT22;38747;53.140;6.498;2023-05-07T10:06:12;15.40;99.90
52879;DHT22;38747;53.140;6.498;2023-05-07T10:08:39;15.40;99.90
52879;DHT22;38747;53.140;6.498;2023-05-07T10:11:05;15.40;99.90
52879;DHT22;38747;53.140;6.498;2023-05-07T10:13:33;15.50;99.90
52879;DHT22;38747;53.140;6.498;2023-05-07T10:16:02;15.50;99.90
52879;DHT22;38747;53.140;6.498;2023-05-07T10:18:33;15.30;99.90
52879;DHT22;38747;53.140;6.498;2023-05-07T10:21:07;15.30;99.90
52879;DHT22;38747;53.140;6.498;2023-05-07T10:23:34;15.20;99.90
52879;DHT22;38747;53.140;6.498;2023-05-07T10:26:02;15.30;99.90
52879;DHT22;38747;53.140;6.498;2023-05-07T10:28:31;15.30;99.90
52879;DHT22;38747;53.140;6.498;2023-05-07T10:33:45;15.20;99.90
52879;DHT22;38747;53.140;6.498;2023-05-07T10:36:12;15.30;99.90
52879;DHT22;38747;53.140;6.498;2023-05-07T10:38:38;15.50;99.90
52879;DHT22;38747;53.140;6.498;2023-05-07T10:41:06;15.70;99.90
52879;DHT22;38747;53.140;6.498;2023-05-07T10:43:42;15.90;99.90
52879;DHT22;38747;53.140;6.498;2023-05-07T10:46:13;16.00;99.90
52879;DHT22;38747;53.140;6.498;2023-05-07T10:51:32;16.00;99.90
52879;DHT22;38747;53.140;6.498;2023-05-07T10:56:41;16.00;99.90
52879;DHT22;38747;53.140;6.498;2023-05-07T11:01:57;16.10;99.90
52879;DHT22;38747;53.140;6.498;2023-05-07T11:04:23;16.10;99.90
52879;DHT22;38747;53.140;6.498;2023-05-07T11:15:07;16.60;99.90
52879;DHT22;38747;53.140;6.498;2023-05-07T11:17:34;16.80;99.90
52879;DHT22;38747;53.140;6.498;2023-05-07T11:20:01;16.80;99.90
52879;DHT22;38747;53.140;6.498;2023-05-07T11:24:57;16.80;99.90
52879;DHT22;38747;53.140;6.498;2023-05-07T11:27:25;16.80;99.90
52879;DHT22;38747;53.140;6.498;2023-05-07T11:29:51;16.90;99.90
52879;DHT22;38747;53.140;6.498;2023-05-07T11:32:30;17.10;99.90
52879;DHT22;38747;53.140;6.498;2023-05-07T11:34:58;17.40;99.90
52879;DHT22;38747;53.140;6.498;2023-05-07T11:37:25;17.40;99.90
52879;DHT22;38747;53.140;6.498;2023-05-07T11:40:10;17.60;99.90
52879;DHT22;38747;53.140;6.498;2023-05-07T11:42:38;17.70;99.90
52879;DHT22;38747;53.140;6.498;2023-05-07T11:45:07;17.70;99.90
52879;DHT22;38747;53.140;6.498;2023-05-07T11:47:34;17.70;99.90
52879;DHT22;38747;53.140;6.498;2023-05-07T11:50:04;17.60;99.90
52879;DHT22;38747;53.140;6.498;2023-05-07T11:52:30;17.50;99.90
52879;DHT22;38747;53.140;6.498;2023-05-07T11:54:58;17.80;99.90
52879;DHT22;38747;53.140;6.498;2023-05-07T11:57:25;17.70;99.90
52879;DHT22;38747;53.140;6.498;2023-05-07T11:59:55;17.70;99.90
52879;DHT22;38747;53.140;6.498;2023-05-07T12:02:21;17.80;99.90
52879;DHT22;38747;53.140;6.498;2023-05-07T12:04:47;17.70;99.90
52879;DHT22;38747;53.140;6.498;2023-05-07T12:07:16;17.80;99.90
52879;DHT22;38747;53.140;6.498;2023-05-07T12:09:42;18.00;99.90
52879;DHT22;38747;53.140;6.498;2023-05-07T12:12:08;18.10;99.90
52879;DHT22;38747;53.140;6.498;2023-05-07T12:14:42;18.10;99.90
52879;DHT22;38747;53.140;6.498;2023-05-07T12:17:09;18.20;99.90
52879;DHT22;38747;53.140;6.498;2023-05-07T12:19:36;18.20;99.90
52879;DHT22;38747;53.140;6.498;2023-05-07T12:22:05;18.00;99.90
52879;DHT22;38747;53.140;6.498;2023-05-07T12:27:09;18.20;99.90
52879;DHT22;38747;53.140;6.498;2023-05-07T12:29:34;18.30;99.90
52879;DHT22;38747;53.140;6.498;2023-05-07T12:32:00;18.40;99.90
52879;DHT22;38747;53.140;6.498;2023-05-07T12:34:26;18.30;99.90
52879;DHT22;38747;53.140;6.498;2023-05-07T12:36:51;18.30;99.90
52879;DHT22;38747;53.140;6.498;2023-05-07T12:39:18;18.40;99.90
52879;DHT22;38747;53.140;6.498;2023-05-07T12:41:58;18.50;99.90
52879;DHT22;38747;53.140;6.498;2023-05-07T12:44:28;18.60;99.90
52879;DHT22;38747;53.140;6.498;2023-05-07T12:46:55;18.80;99.90
52879;DHT22;38747;53.140;6.498;2023-05-07T12:49:21;18.90;99.90
52879;DHT22;38747;53.140;6.498;2023-05-07T12:51:47;19.00;99.90
52879;DHT22;38747;53.140;6.498;2023-05-07T12:54:27;19.00;99.90
52879;DHT22;38747;53.140;6.498;2023-05-07T12:57:01;18.80;99.90
52879;DHT22;38747;53.140;6.498;2023-05-07T12:59:37;18.90;99.90
52879;DHT22;38747;53.140;6.498;2023-05-07T13:02:04;19.10;99.90
52879;DHT22;38747;53.140;6.498;2023-05-07T13:04:29;19.20;99.90
52879;DHT22;38747;53.140;6.498;2023-05-07T13:06:55;19.20;99.90
52879;DHT22;38747;53.140;6.498;2023-05-07T13:09:21;19.30;99.90
52879;DHT22;38747;53.140;6.498;2023-05-07T13:11:46;19.30;99.90
52879;DHT22;38747;53.140;6.498;2023-05-07T13:14:12;19.30;99.90
52879;DHT22;38747;53.140;6.498;2023-05-07T13:16:38;19.40;99.90
52879;DHT22;38747;53.140;6.498;2023-05-07T13:19:03;19.50;99.90
52879;DHT22;38747;53.140;6.498;2023-05-07T13:21:30;19.60;99.90
52879;DHT22;38747;53.140;6.498;2023-05-07T13:23:58;19.40;99.90
52879;DHT22;38747;53.140;6.498;2023-05-07T13:26:25;19.20;99.90
52879;DHT22;38747;53.140;6.498;2023-05-07T13:28:51;19.10;99.90
52879;DHT22;38747;53.140;6.498;2023-05-07T13:31:17;19.00;99.90
52879;DHT22;38747;53.140;6.498;2023-05-07T13:33:43;19.00;99.90
52879;DHT22;38747;53.140;6.498;2023-05-07T13:36:09;19.20;99.90
52879;DHT22;38747;53.140;6.498;2023-05-07T13:38:35;19.30;99.90
52879;DHT22;38747;53.140;6.498;2023-05-07T13:41:01;19.20;99.90
52879;DHT22;38747;53.140;6.498;2023-05-07T13:43:26;19.30;99.90
52879;DHT22;38747;53.140;6.498;2023-05-07T13:45:52;19.30;99.90
52879;DHT22;38747;53.140;6.498;2023-05-07T13:48:18;19.40;99.90
52879;DHT22;38747;53.140;6.498;2023-05-07T13:50:43;19.20;99.90
52879;DHT22;38747;53.140;6.498;2023-05-07T13:53:09;19.20;99.90
52879;DHT22;38747;53.140;6.498;2023-05-07T13:55:34;19.20;99.90
52879;DHT22;38747;53.140;6.498;2023-05-07T13:58:02;19.10;99.90
52879;DHT22;38747;53.140;6.498;2023-05-07T14:00:28;19.10;99.90
52879;DHT22;38747;53.140;6.498;2023-05-07T14:02:55;19.10;99.90
52879;DHT22;38747;53.140;6.498;2023-05-07T14:05:20;19.20;99.90
52879;DHT22;38747;53.140;6.498;2023-05-07T14:07:49;19.20;99.90
52879;DHT22;38747;53.140;6.498;2023-05-07T14:10:17;19.20;99.90
52879;DHT22;38747;53.140;6.498;2023-05-07T14:12:44;19.30;99.90
52879;DHT22;38747;53.140;6.498;2023-05-07T14:15:10;19.40;99.90
52879;DHT22;38747;53.140;6.498;2023-05-07T14:17:36;19.50;99.90
52879;DHT22;38747;53.140;6.498;2023-05-07T14:20:02;19.50;99.90
52879;DHT22;38747;53.140;6.498;2023-05-07T14:22:28;19.70;99.90
52879;DHT22;38747;53.140;6.498;2023-05-07T14:24:54;19.70;99.90
52879;DHT22;38747;53.140;6.498;2023-05-07T14:27:19;19.70;99.90
52879;DHT22;38747;53.140;6.498;2023-05-07T14:29:45;19.70;99.90
52879;DHT22;38747;53.140;6.498;2023-05-07T14:32:18;19.60;99.90
52879;DHT22;38747;53.140;6.498;2023-05-07T14:34:45;19.40;99.90
52879;DHT22;38747;53.140;6.498;2023-05-07T14:37:10;19.20;99.90
52879;DHT22;38747;53.140;6.498;2023-05-07T14:39:36;19.10;99.90
52879;DHT22;38747;53.140;6.498;2023-05-07T14:42:02;19.10;99.90
52879;DHT22;38747;53.140;6.498;2023-05-07T14:44:28;19.20;99.90
52879;DHT22;38747;53.140;6.498;2023-05-07T14:46:54;19.30;99.90
52879;DHT22;38747;53.140;6.498;2023-05-07T14:49:20;19.20;99.90
52879;DHT22;38747;53.140;6.498;2023-05-07T14:51:46;19.30;99.90
52879;DHT22;38747;53.140;6.498;2023-05-07T14:54:15;19.40;99.90
52879;DHT22;38747;53.140;6.498;2023-05-07T14:56:41;19.40;99.90
52879;DHT22;38747;53.140;6.498;2023-05-07T14:59:08;19.40;99.90
52879;DHT22;38747;53.140;6.498;2023-05-07T15:01:35;19.50;99.90
52879;DHT22;38747;53.140;6.498;2023-05-07T15:04:02;19.60;99.90
52879;DHT22;38747;53.140;6.498;2023-05-07T15:06:28;19.70;99.90
52879;DHT22;38747;53.140;6.498;2023-05-07T15:08:54;19.70;99.90
52879;DHT22;38747;53.140;6.498;2023-05-07T15:11:20;19.70;99.90
52879;DHT22;38747;53.140;6.498;2023-05-07T15:13:46;19.70;99.90
52879;DHT22;38747;53.140;6.498;2023-05-07T15:16:11;19.70;99.90
52879;DHT22;38747;53.140;6.498;2023-05-07T15:18:37;19.70;99.90
52879;DHT22;38747;53.140;6.498;2023-05-07T15:21:03;19.80;99.90
52879;DHT22;38747;53.140;6.498;2023-05-07T15:23:28;19.80;99.90
52879;DHT22;38747;53.140;6.498;2023-05-07T15:25:54;19.80;99.90
52879;DHT22;38747;53.140;6.498;2023-05-07T15:28:20;19.90;99.90
52879;DHT22;38747;53.140;6.498;2023-05-07T15:30:46;20.00;99.90
52879;DHT22;38747;53.140;6.498;2023-05-07T15:33:12;20.00;99.90
52879;DHT22;38747;53.140;6.498;2023-05-07T15:35:37;20.10;99.90
52879;DHT22;38747;53.140;6.498;2023-05-07T15:38:03;20.20;99.90
52879;DHT22;38747;53.140;6.498;2023-05-07T15:40:30;20.20;99.90
52879;DHT22;38747;53.140;6.498;2023-05-07T15:42:56;20.10;99.90
52879;DHT22;38747;53.140;6.498;2023-05-07T15:45:24;20.00;99.90
52879;DHT22;38747;53.140;6.498;2023-05-07T15:47:50;20.00;99.90
52879;DHT22;38747;53.140;6.498;2023-05-07T15:50:16;20.00;99.90